Terminal Aerodrome Forecast
Issued by NWS Blacksburg, VA

Home | Current Version | Previous Version | Text Only | Print | Product List | Glossary On
Versions: 1 2 3 4 5 6 7 8 9 10 11 12 13 14 15 16 17 18 19 20 21 22 23 24 25 26 27 28 29 30 31 32 33 34 35 36 37 38 39 40 41 42 43 44 45 46 47 48 49 50
000
FTUS41 KRNK 051421 AAA
TAFBLF
TAF AMD
KBLF 051421Z 0514/0612 01006KT 1 1/2SM -FZRA BR OVC006
     FM051500 35008KT 1SM -PL OVC008
     FM051700 03006KT 1 1/2SM -SN BR OVC007
      TEMPO 0517/0518 1/2SM SN FG OVC002
     FM052100 33007KT 3SM -SN OVC012
     FM060100 33005KT P6SM OVC020=

USA.gov is the U.S. government's official web portal to all federal, state and local government web resources and services.